Panevezys, Lithuania
Current Conditions -  °F | °C
As of 12:50 AM on Thursday 29 Jan 2015 (Local Time) from EYSA Reporting Station
Overcast Overcast  
Wind Chill: 18°   Ceiling: 1600
Heat Index: 30°   Visibility: 6mi
Dew Point: 28°   Wind: 17mph
Humidity: 93%   Direction: 190°S
Pressure: 29.44"   Gusts: NA
Location:  55.74°N, 24.37°E
Report Text: EYSA 282150Z 19015KT 9999 OVC016 M01/M02 Q0997 R14L/29//95 R14R/29//95
Loading
Personal Weather Stations






























Interactive Weather Map New forecast layout! Learn more

10-Day Weather Forecast

Advertisements
Track Severe Weather on mobile